Domov               UVHVVR             MKGP            O straneh              
ZDRAVSTVENO VARSTVO RASTLIN
  MREŽA AGROMET. POSTAJ
 ► PROGNOSTIČNA OBVESTILA
AGROMETEOROLOŠKI PODATKI -
ARSO
OBVLADOVANJE TVEGANJ ZARADI
NEUGODNIH VREMENSKIH RAZMER
  ► NARAVNE NESREČE
  ► SUŠA/MOČA
  ► NAMAKANJE
  ► ŽLED (gozdarstvo)
KARTOGRAFSKI PRIKAZI
SPLETNE POVEZAVE
PROJEKTI IN PUBLIKACIJE

AGROMETEOROLOŠKA MREŽA: VREMENSKE POSTAJE IN FENOLOŠKA OPAZOVANJA

Pregled podatkov za lokacijo Godemarci, meteorološka postaja 37828

Pregled senzorjev na lokaciji

ID Ime Zadnja
vrednost
Datum
zadnje
spremembe
Tip
senzorja
3799 Omočenost lista (U) 0 U 19.10.2017 15:30 A730WET
3800 Temperatura 2 m ( °C) 17,29 °C 19.10.2017 15:30 50YA
3801 Relativna vlaga 2 m (% RH) 68,47 % RH 19.10.2017 15:29 50YA
3802 Padavine 0.2 mm (mm) 0 mm 19.10.2017 15:30 Rain-O-Matic

Pregled podatkov zadnjih 24 ur

Zap.
št.
Datum in čas Godemarci
Omočenost
lista
Padavine
0.2
mm
Relativna
vlaga
2
m
Temperatura
2
m
0 19.10.2017 14:30 0 0 68,47 17,29
1 19.10.2017 14:00 0 0 68,13 17,41
2 19.10.2017 13:30 0 0 69,43 16,9
3 19.10.2017 13:00 0 0 72,75 16,09
4 19.10.2017 12:30 0 0 77,22 15,07
5 19.10.2017 12:00 0 0 78,24 14,82
6 19.10.2017 11:30 0 0 77,36 14,75
7 19.10.2017 11:00 0 0 77,56 14,38
8 19.10.2017 10:30 0 0 80,2 13,28
9 19.10.2017 10:00 0 0 85,03 11,89
10 19.10.2017 09:30 0 0 84,91 11,43
11 19.10.2017 09:00 0 0 80,88 11,79
12 19.10.2017 08:30 0 0 84,71 10,72
13 19.10.2017 08:00 0 0 99,15 8,06
14 19.10.2017 07:30 0 0 99,93 5,76
15 19.10.2017 07:00 0 0 99,63 4,25
16 19.10.2017 06:30 0 0 98,68 3,98
17 19.10.2017 06:00 0 0 97,58 3,88
18 19.10.2017 05:30 0 0 96,46 4,05
19 19.10.2017 05:00 0 0 94,82 4,37
20 19.10.2017 04:30 0 0 93,46 4,84
21 19.10.2017 04:00 0 0 91,87 5,74
22 19.10.2017 03:30 0 0 89,01 7,28
23 19.10.2017 03:00 0 0 82,83 9,08
24 19.10.2017 02:30 0 0 80,46 9,67
25 19.10.2017 02:00 0 0 91,55 8,4
26 19.10.2017 01:30 0 0 91,82 8,08
27 19.10.2017 01:00 0 0 90,26 8,64
28 19.10.2017 00:30 0 0 84,96 10,06
29 19.10.2017 00:00 0 0 78,29 11,36
30 18.10.2017 23:30 0 0 79,24 10,96
31 18.10.2017 23:00 0 0 82,34 10,45
32 18.10.2017 22:30 0 0 80,34 10,94
33 18.10.2017 22:00 0 0 68,06 13,24
34 18.10.2017 21:30 0 0 61,47 14,53
35 18.10.2017 21:00 0 0 60,1 14,97
36 18.10.2017 20:30 0 0 60,22 15,36
37 18.10.2017 20:00 0 0 64,84 14,51
38 18.10.2017 19:30 0 0 78,44 12,53
39 18.10.2017 19:00 0 0 73,36 14,07
40 18.10.2017 18:30 0 0 60,85 16,56
41 18.10.2017 18:00 0 0 56,7 17,39
42 18.10.2017 17:30 0 0 57,29 17,39
43 18.10.2017 17:00 0 0 55,9 18,12
44 18.10.2017 16:30 0 0 52,28 19,19
© 2011 Ministrstvo za kmetijstvo, gozdarstvo in prehrano. Vse pravice pridržane.